Time;durP1;ratioP1;P1;durP2;ratioP2;P2;SDS_P1;SDS_P2;PMS_P1;PMS_P2;Temp;Humidity;BMP_temperature;BMP_pressure;BME280_temperature;BME280_humidity;BME280_pressure;Samples;Min_cycle;Max_cycle;Signal;HPM_P1;HPM_P2
2024/04/02 00:00:36;;;;;;;17.95;3.75;;;;;;;18.86;40.02;98520.78;4869524;29;20037;-94
2024/04/02 00:03:06;;;;;;;24.98;4.28;;;;;;;18.86;40.21;98534.41;4892058;29;20459;-91
2024/04/02 00:05:31;;;;;;;18.65;3.60;;;;;;;18.78;39.34;98524.44;4875170;29;20024;-92
2024/04/02 00:08:02;;;;;;;14.48;3.58;;;;;;;18.70;40.30;98517.16;4868262;29;20392;-92
2024/04/02 00:10:28;;;;;;;13.85;3.65;;;;;;;18.64;41.70;98538.41;4888535;29;20499;-92
2024/04/02 00:12:54;;;;;;;17.77;3.60;;;;;;;18.53;42.42;98540.81;4888189;29;20051;-92
2024/04/02 00:15:19;;;;;;;22.73;4.40;;;;;;;18.40;43.10;98550.13;4872448;29;20087;-91
2024/04/02 00:17:45;;;;;;;20.85;3.80;;;;;;;18.24;43.08;98530.13;4904316;29;20092;-92
2024/04/02 00:20:11;;;;;;;20.38;4.13;;;;;;;18.22;43.15;98555.00;4872477;29;20095;-93
2024/04/02 00:22:37;;;;;;;13.80;3.15;;;;;;;18.03;43.46;98535.66;4872751;29;20027;-91
2024/04/02 00:25:04;;;;;;;18.10;3.30;;;;;;;18.01;43.26;98548.84;4872216;29;20511;-92
2024/04/02 00:27:31;;;;;;;18.92;4.47;;;;;;;17.97;43.73;98535.91;4887062;29;20039;-94
2024/04/02 00:29:57;;;;;;;18.88;3.72;;;;;;;17.94;43.40;98552.13;4904705;29;20356;-93
2024/04/02 00:32:22;;;;;;;19.20;3.38;;;;;;;17.92;43.61;98554.38;4903054;29;20068;-93
2024/04/02 00:34:48;;;;;;;25.67;4.25;;;;;;;17.82;44.22;98547.41;4872674;29;20091;-92
2024/04/02 00:37:14;;;;;;;27.13;4.45;;;;;;;17.79;44.09;98545.38;4888941;29;20094;-92
2024/04/02 00:39:39;;;;;;;32.03;5.35;;;;;;;17.73;44.20;98543.97;4887477;29;20048;-93
2024/04/02 00:42:05;;;;;;;21.23;4.35;;;;;;;17.68;44.58;98560.50;4903495;29;20044;-92
2024/04/02 00:44:35;;;;;;;23.67;3.97;;;;;;;17.63;44.43;98547.91;4878448;29;20033;-93
2024/04/02 00:47:02;;;;;;;13.38;4.22;;;;;;;17.59;44.67;98552.44;4868589;29;20095;-93
2024/04/02 00:49:27;;;;;;;22.40;3.35;;;;;;;17.53;44.84;98568.19;4874707;29;20039;-93
2024/04/02 00:51:53;;;;;;;19.50;3.42;;;;;;;17.26;45.14;98541.53;4890977;29;20509;-93
2024/04/02 00:54:19;;;;;;;18.23;4.07;;;;;;;17.22;45.17;98543.34;4887904;29;20056;-93
2024/04/02 00:56:44;;;;;;;25.02;3.80;;;;;;;17.07;45.19;98536.56;4872129;29;20036;-93
2024/04/02 00:59:13;;;;;;;19.48;4.15;;;;;;;17.06;45.22;98557.53;4871413;29;20024;-92
2024/04/02 01:01:39;;;;;;;24.38;4.05;;;;;;;17.13;45.22;98546.13;4872544;29;20038;-93
2024/04/02 01:04:04;;;;;;;23.98;4.63;;;;;;;17.17;45.44;98547.06;4872664;29;20475;-93
2024/04/02 01:06:30;;;;;;;19.73;3.80;;;;;;;17.02;46.35;98545.72;4887428;29;20027;-91
2024/04/02 01:08:56;;;;;;;16.55;3.70;;;;;;;16.83;46.99;98537.22;4871939;29;20115;-92
2024/04/02 01:11:22;;;;;;;23.02;5.35;;;;;;;16.80;46.97;98527.78;4868516;29;20115;-92
2024/04/02 01:13:48;;;;;;;20.42;3.25;;;;;;;16.81;47.06;98540.28;4854033;29;20037;-91
2024/04/02 01:16:17;;;;;;;26.08;4.50;;;;;;;16.85;46.95;98534.97;4868383;29;20052;-92
2024/04/02 01:18:46;;;;;;;17.17;3.88;;;;;;;16.70;47.28;98539.03;4868935;29;20162;-92
2024/04/02 01:21:13;;;;;;;26.42;3.67;;;;;;;16.55;47.51;98526.81;4869595;29;20043;-93
2024/04/02 01:23:39;;;;;;;21.30;3.55;;;;;;;16.59;48.02;98546.00;4885010;29;20063;-93
2024/04/02 01:26:06;;;;;;;18.15;4.72;;;;;;;16.41;47.53;98510.75;4852513;29;20041;-92
2024/04/02 01:28:31;;;;;;;25.63;6.13;;;;;;;16.39;47.37;98509.47;4868773;29;20028;-93
2024/04/02 01:30:59;;;;;;;15.48;3.85;;;;;;;16.26;47.89;98503.16;4882837;29;20036;-92
2024/04/02 01:33:27;;;;;;;19.48;4.53;;;;;;;16.29;47.57;98511.47;4883892;29;20051;-91
2024/04/02 01:35:53;;;;;;;17.52;4.28;;;;;;;16.42;48.20;98517.00;4867535;29;20141;-93
2024/04/02 01:38:18;;;;;;;26.33;3.53;;;;;;;16.39;47.78;98509.47;4868604;29;20070;-93
2024/04/02 01:40:44;;;;;;;18.20;3.90;;;;;;;16.32;48.16;98523.59;4868719;29;20522;-92
2024/04/02 01:43:09;;;;;;;28.60;3.50;;;;;;;16.34;48.25;98505.81;4853331;29;20063;-93
2024/04/02 01:45:35;;;;;;;22.75;4.40;;;;;;;16.44;48.51;98514.75;4852137;29;20435;-94
2024/04/02 01:48:02;;;;;;;16.20;4.28;;;;;;;16.53;46.49;98520.91;4868432;29;20503;-92
2024/04/02 01:50:32;;;;;;;23.00;3.60;;;;;;;16.49;43.89;98496.31;4850429;29;20028;-91
2024/04/02 01:52:58;;;;;;;16.55;3.40;;;;;;;16.63;41.92;98495.28;4845079;29;20028;-92
2024/04/02 01:55:25;;;;;;;20.55;3.63;;;;;;;16.87;41.07;98509.06;4878511;29;20064;-92
2024/04/02 01:57:50;;;;;;;19.65;3.50;;;;;;;16.87;40.64;98484.59;4871465;29;20107;-93
2024/04/02 02:00:18;;;;;;;25.48;3.70;;;;;;;16.98;39.90;98495.06;4870471;29;20071;-93
2024/04/02 02:02:44;;;;;;;15.35;3.10;;;;;;;17.13;39.40;98500.66;4886594;29;20035;-92
2024/04/02 02:05:13;;;;;;;19.42;3.25;;;;;;;17.21;38.84;98504.44;4871025;29;20407;-91
2024/04/02 02:07:38;;;;;;;18.98;3.60;;;;;;;17.33;38.29;98509.94;4888015;29;20095;-92
2024/04/02 02:10:04;;;;;;;17.23;3.33;;;;;;;17.34;38.33;98486.25;4886389;29;20064;-92
2024/04/02 02:12:30;;;;;;;25.83;3.65;;;;;;;17.43;37.86;98489.69;4871024;29;20028;-94
2024/04/02 02:14:56;;;;;;;29.02;3.90;;;;;;;17.57;39.79;98501.03;4870894;29;20046;-92
2024/04/02 02:17:21;;;;;;;19.48;3.50;;;;;;;17.47;41.64;98501.50;4870898;29;20479;-92
2024/04/02 02:19:48;;;;;;;18.33;3.42;;;;;;;17.45;40.41;98495.59;4887469;29;20044;-92
2024/04/02 02:22:15;;;;;;;23.67;3.97;;;;;;;17.54;39.83;98509.91;4887035;29;20142;-92
2024/04/02 02:24:41;;;;;;;17.17;3.75;;;;;;;17.45;39.13;98489.34;4869566;29;20499;-93
2024/04/02 02:27:07;;;;;;;15.52;3.38;;;;;;;17.50;38.05;98481.75;4871178;29;20083;-93
2024/04/02 02:29:32;;;;;;;19.20;3.17;;;;;;;17.46;37.92;98472.69;4874875;29;20032;-93
2024/04/02 02:31:58;;;;;;;22.17;3.33;;;;;;;17.50;38.13;98473.59;4873890;29;20559;-92
2024/04/02 02:34:24;;;;;;;23.00;3.13;;;;;;;17.57;37.86;98490.16;4889785;29;20080;-92
2024/04/02 02:36:50;;;;;;;17.27;3.22;;;;;;;17.47;37.79;98473.47;4874206;29;20050;-93
2024/04/02 02:39:17;;;;;;;20.27;3.38;;;;;;;17.50;38.17;98467.38;4890535;29;20505;-93
2024/04/02 02:41:45;;;;;;;18.40;3.15;;;;;;;17.51;38.24;98475.16;4874971;29;20423;-92
2024/04/02 02:44:11;;;;;;;22.15;3.28;;;;;;;17.53;38.02;98462.03;4890733;29;20403;-92
2024/04/02 02:46:37;;;;;;;14.45;4.32;;;;;;;17.48;38.64;98464.19;4890497;29;20032;-92
2024/04/02 02:49:02;;;;;;;17.88;4.00;;;;;;;17.56;38.87;98472.25;4901929;29;20056;-92
2024/04/02 02:51:28;;;;;;;26.50;4.15;;;;;;;17.53;41.07;98477.56;4859458;29;20070;-92
2024/04/02 02:53:55;;;;;;;17.30;3.35;;;;;;;17.41;42.81;98489.22;4922033;29;20091;-91
2024/04/02 02:56:22;;;;;;;28.58;4.13;;;;;;;17.19;45.14;98478.72;4902571;29;20040;-90
2024/04/02 02:58:52;;;;;;;18.10;3.63;;;;;;;16.96;46.13;98473.63;4875302;29;20020;-91
2024/04/02 03:01:18;;;;;;;23.02;3.70;;;;;;;16.95;45.54;98472.03;4890670;29;20032;-93
2024/04/02 03:03:51;;;;;;;19.88;4.07;;;;;;;16.75;46.02;98460.81;4890589;29;20131;-92
2024/04/02 03:06:17;;;;;;;38.20;5.28;;;;;;;16.75;46.16;98470.91;4891172;29;20063;-91
2024/04/02 03:08:43;;;;;;;19.05;4.20;;;;;;;16.70;46.47;98460.19;4873984;29;20400;-93
2024/04/02 03:11:09;;;;;;;20.75;3.92;;;;;;;16.57;46.94;98470.22;4855441;29;20024;-92
2024/04/02 03:13:35;;;;;;;23.52;3.83;;;;;;;16.51;47.32;98450.56;4886984;29;20032;-92
2024/04/02 03:16:02;;;;;;;22.90;4.20;;;;;;;16.52;47.86;98471.22;4855654;29;20039;-92
2024/04/02 03:18:28;;;;;;;17.98;4.32;;;;;;;16.31;47.70;98456.78;4887020;29;20098;-91
2024/04/02 03:20:54;;;;;;;22.38;5.07;;;;;;;16.20;47.95;98447.44;4872180;29;20047;-92
2024/04/02 03:23:22;;;;;;;29.20;4.80;;;;;;;16.29;48.42;98469.91;4885891;29;20096;-91
2024/04/02 03:26:00;;;;;;;27.75;5.28;;;;;;;16.21;47.97;98459.88;4872628;29;20043;-94
2024/04/02 03:28:27;;;;;;;17.30;3.45;;;;;;;16.17;48.46;98457.03;4873428;29;20029;-91
2024/04/02 03:31:02;;;;;;;20.65;4.13;;;;;;;16.21;48.01;98452.53;4870726;29;20531;-92
2024/04/02 03:33:31;;;;;;;24.00;4.85;;;;;;;16.28;48.41;98471.03;4856526;29;20036;-93
2024/04/02 03:36:03;;;;;;;21.75;4.05;;;;;;;16.20;49.27;98471.88;4887372;29;20033;-94
2024/04/02 03:38:29;;;;;;;21.67;4.40;;;;;;;16.07;49.11;98454.69;4870751;29;20048;-92
2024/04/02 03:40:54;;;;;;;25.77;3.72;;;;;;;16.12;49.02;98457.22;4856262;29;20060;-93
2024/04/02 03:43:21;;;;;;;25.88;4.05;;;;;;;16.18;48.82;98464.03;4856034;29;20440;-92
2024/04/02 03:45:49;;;;;;;28.08;4.82;;;;;;;16.17;48.74;98465.97;4903426;29;20487;-94
2024/04/02 03:48:14;;;;;;;29.48;5.10;;;;;;;16.15;48.49;98457.34;4871215;29;20025;-91
2024/04/02 03:50:40;;;;;;;30.45;5.07;;;;;;;16.22;47.77;98454.13;4870425;29;20029;-92
2024/04/02 03:53:06;;;;;;;31.17;5.65;;;;;;;16.23;47.83;98454.91;4871156;29;20487;-92
2024/04/02 03:55:37;;;;;;;26.08;4.70;;;;;;;16.31;48.84;98473.91;4896306;29;20055;-93
2024/04/02 03:58:04;;;;;;;26.92;5.30;;;;;;;16.11;47.16;98439.34;4889974;29;20103;-92
2024/04/02 04:00:30;;;;;;;29.90;5.63;;;;;;;16.15;47.01;98437.56;4904784;29;20031;-92
2024/04/02 04:02:56;;;;;;;33.58;5.90;;;;;;;16.17;47.52;98436.09;4890179;29;20443;-92
2024/04/02 04:05:22;;;;;;;26.02;4.93;;;;;;;16.23;46.60;98433.19;4873898;29;20040;-93
2024/04/02 04:07:48;;;;;;;22.33;4.80;;;;;;;16.32;43.82;98433.94;4874725;29;20031;-94
2024/04/02 04:10:14;;;;;;;27.67;4.05;;;;;;;16.52;38.89;98446.75;4863437;29;20029;-93
2024/04/02 04:12:40;;;;;;;17.88;3.78;;;;;;;16.67;37.48;98439.13;4867963;29;20033;-93
2024/04/02 04:15:10;;;;;;;23.90;3.95;;;;;;;16.92;37.14;98448.22;4853247;29;20117;-92
2024/04/02 04:17:37;;;;;;;25.40;3.83;;;;;;;16.91;36.50;98428.41;4869902;29;20044;-93
2024/04/02 04:20:04;;;;;;;28.55;3.60;;;;;;;17.12;36.18;98444.69;4881793;29;20036;-90
2024/04/02 04:22:33;;;;;;;22.83;3.50;;;;;;;17.36;33.70;98448.59;4871020;29;20104;-93
2024/04/02 04:25:07;;;;;;;25.10;4.55;;;;;;;17.44;34.20;98427.88;4870658;29;20036;-94
2024/04/02 04:27:38;;;;;;;27.90;4.43;;;;;;;17.57;33.14;98433.00;4889366;29;20041;-93
2024/04/02 04:30:10;;;;;;;23.85;3.88;;;;;;;17.73;31.98;98416.00;4857432;29;20043;-92
2024/04/02 04:32:37;;;;;;;19.33;4.25;;;;;;;18.00;32.12;98436.38;4871822;29;20070;-91
2024/04/02 04:35:26;;;;;;;21.23;4.13;;;;;;;18.03;31.82;98413.88;4871945;29;20024;-92
2024/04/02 04:37:55;;;;;;;27.75;4.55;;;;;;;18.31;31.65;98445.88;4831699;29;20054;-94
2024/04/02 04:40:21;;;;;;;35.38;5.10;;;;;;;18.33;31.52;98421.81;4827384;29;20145;-92
2024/04/02 04:42:47;;;;;;;35.95;6.65;;;;;;;18.50;33.80;98428.94;4831079;29;20087;-95
2024/04/02 04:45:16;;;;;;;31.17;6.38;;;;;;;18.51;36.12;98427.78;4831669;29;20030;-94
2024/04/02 04:47:43;;;;;;;46.38;6.78;;;;;;;18.53;36.98;98426.31;4833150;29;20042;-95
2024/04/02 04:50:15;;;;;;;33.95;7.15;;;;;;;18.36;39.90;98404.75;4818074;29;20038;-94
2024/04/02 04:52:41;;;;;;;49.83;8.88;;;;;;;18.43;40.36;98421.34;4798693;29;20053;-96
2024/04/02 04:55:11;;;;;;;56.58;13.98;;;;;;;18.49;38.71;98436.31;4821622;29;20129;-94
2024/04/02 04:57:40;;;;;;;32.20;7.50;;;;;;;18.50;39.43;98437.88;4814139;29;20042;-92
2024/04/02 05:00:34;;;;;;;47.08;8.25;;;;;;;18.42;39.68;98414.28;4812799;29;20031;-92
2024/04/02 05:03:10;;;;;;;;;;;;;;;;;;;;;
2024/04/02 05:05:37;;;;;;;22.95;4.82;;;;;;;18.48;35.39;98432.00;4773479;30;20634;-95
2024/04/02 05:08:18;;;;;;;23.35;4.40;;;;;;;18.75;32.99;98433.16;4803024;29;20062;-95
2024/04/02 05:10:44;;;;;;;29.53;4.60;;;;;;;18.76;33.51;98412.94;4805136;29;20036;-93
2024/04/02 05:13:10;;;;;;;21.08;4.25;;;;;;;19.01;32.47;98421.06;4804827;29;20131;-94
2024/04/02 05:15:58;;;;;;;37.85;11.13;;;;;;;19.05;32.42;98411.06;4815166;29;20090;-95
2024/04/02 05:27:04;;;;;;;41.95;8.65;;;;;;;19.42;39.39;98413.56;5010151;23;20091;-91
2024/04/02 05:29:32;;;;;;;268.55;167.82;;;;;;;19.47;41.13;98409.78;4913266;29;20094;-91
2024/04/02 05:32:59;;;;;;;;;;;;;;;;;;;;;
2024/04/02 05:35:25;;;;;;;211.43;128.43;;;;;;;19.58;38.34;98410.84;4883245;29;20104;-91
2024/04/02 05:38:52;;;;;;;;;;;;;;;;;;;;;
2024/04/02 05:45:35;;;;;;;48.97;18.30;;;;;;;20.10;37.15;98437.09;4886058;29;20041;-95
2024/04/02 05:48:10;;;;;;;80.88;39.00;;;;;;;20.24;37.33;98433.91;4900053;29;20032;-93
2024/04/02 05:50:36;;;;;;;145.27;60.22;;;;;;;20.24;39.55;98422.97;4854365;29;20401;-92
2024/04/02 05:53:46;;;;;;;;;;;;;;;;;;;;;
2024/04/02 05:56:39;;;;;;;114.50;46.05;;;;;;;20.32;39.25;98413.00;4847608;29;20105;-91
2024/04/02 06:02:32;;;;;;;192.73;104.07;;;;;;;20.82;39.47;98446.13;4880051;29;20032;-92
2024/04/02 06:18:44;;;;;;;61.28;13.13;;;;;;;20.92;36.52;98412.72;4808619;29;20523;-92
2024/04/02 06:24:32;;;;;;;43.22;8.65;;;;;;;21.33;33.07;98424.03;4842141;29;20044;-93
2024/04/02 06:30:24;;;;;;;33.83;6.28;;;;;;;21.99;26.84;98427.53;4826802;29;20053;-90
2024/04/02 06:33:25;;;;;;;;;;;;;;;;;;;;;
2024/04/02 06:39:39;;;;;;;31.85;10.85;;;;;;;22.91;27.64;98443.72;4817227;29;20034;-94
2024/04/02 06:42:31;;;;;;;55.42;18.73;;;;;;;23.16;28.48;98455.03;4886945;29;20044;-94
2024/04/02 06:48:31;;;;;;;39.20;7.38;;;;;;;23.12;30.66;98442.44;4836623;29;20058;-90
2024/04/02 06:51:11;;;;;;;37.22;6.78;;;;;;;23.08;30.00;98436.91;4811913;29;20037;-95
2024/04/02 06:53:48;;;;;;;29.25;6.90;;;;;;;23.10;29.52;98418.09;4800213;29;20093;-93
2024/04/02 06:56:40;;;;;;;38.58;6.85;;;;;;;23.34;28.73;98451.69;4806946;29;20033;-94
2024/04/02 06:59:35;;;;;;;;;;;;;;;;;;;;;
2024/04/02 07:02:06;;;;;;;46.67;11.98;;;;;;;23.45;27.67;98427.88;4828479;29;20072;-92
2024/04/02 07:04:39;;;;;;;34.03;7.13;;;;;;;23.50;27.69;98419.25;4845491;29;20090;-95
2024/04/02 07:07:19;;;;;;;35.38;7.22;;;;;;;23.72;27.17;98435.94;4816510;29;20303;-95
2024/04/02 07:09:44;;;;;;;37.60;7.32;;;;;;;23.77;26.57;98428.16;4828446;29;20154;-91
2024/04/02 07:12:10;;;;;;;26.70;7.28;;;;;;;23.93;27.36;98435.38;4842575;29;20046;-93
2024/04/02 07:17:22;;;;;;;42.28;9.68;;;;;;;24.15;27.83;98422.56;4870578;29;20037;-93
2024/04/02 07:20:05;;;;;;;;;;;;;;;;;;;;;
2024/04/02 07:22:31;;;;;;;32.75;9.68;;;;;;;24.60;22.12;98426.78;4880460;29;20492;-94
2024/04/02 07:25:01;;;;;;;28.98;5.05;;;;;;;25.04;20.77;98440.75;4869838;29;20037;-94
2024/04/02 07:27:37;;;;;;;35.87;6.77;;;;;;;25.27;21.16;98432.19;4885552;29;20052;-93
2024/04/02 07:30:12;;;;;;;33.05;7.88;;;;;;;25.65;19.88;98436.19;4902044;29;20028;-91
2024/04/02 07:35:29;;;;;;;27.50;4.88;;;;;;;26.15;18.55;98422.41;4912737;29;20036;-93
2024/04/02 07:37:55;;;;;;;35.88;4.97;;;;;;;26.39;18.38;98417.22;4907434;29;20024;-92
2024/04/02 07:40:38;;;;;;;;;;;;;;;;;;;;;
2024/04/02 07:43:07;;;;;;;31.13;5.03;;;;;;;27.00;16.93;98444.66;4902954;29;20579;-93
2024/04/02 07:45:37;;;;;;;35.65;5.38;;;;;;;27.20;17.26;98442.97;4902379;29;20037;-94
2024/04/02 07:48:04;;;;;;;24.20;4.00;;;;;;;27.37;16.93;98455.16;4902184;29;20029;-93
2024/04/02 07:51:00;;;;;;;37.17;6.22;;;;;;;27.45;16.29;98433.78;4872597;29;20123;-95
2024/04/02 07:53:38;;;;;;;;;;;;;;;;;;;;;
2024/04/02 07:56:15;;;;;;;30.85;4.50;;;;;;;27.74;15.63;98436.34;4833315;29;20121;-94
2024/04/02 07:59:09;;;;;;;28.48;4.97;;;;;;;27.76;15.33;98439.47;4846972;29;20030;-94
2024/04/02 08:02:05;;;;;;;32.63;4.57;;;;;;;27.85;15.76;98434.28;4833056;29;20065;-92
2024/04/02 08:04:35;;;;;;;44.83;10.50;;;;;;;27.92;16.63;98425.16;4860592;29;20065;-92
2024/04/02 08:07:20;;;;;;;;;;;;;;;;;;;;;
2024/04/02 08:09:49;;;;;;;28.38;5.07;;;;;;;28.11;16.21;98440.41;4838890;29;20101;-92
2024/04/02 08:13:15;;;;;;;;;;;;;;;;;;;;;
2024/04/02 08:22:34;;;;;;;;;;;;;;;28.04;20.29;98529.81;4933914;29;20098;-94
2024/04/02 08:25:10;;;;;;;53.38;5.90;;;;;;;26.57;23.97;98502.81;4923288;29;19911;-95
2024/04/02 08:27:43;;;;;;;24.83;3.92;;;;;;;26.17;25.03;98526.88;4935622;29;20070;-94
2024/04/02 08:33:44;;;;;;;31.02;4.35;;;;;;;24.96;28.31;98531.59;4913756;29;20042;-93
2024/04/02 08:36:21;;;;;;;22.50;4.30;;;;;;;24.73;28.93;98540.13;4930332;29;20028;-95
2024/04/02 08:38:57;;;;;;;27.35;4.20;;;;;;;24.64;29.63;98542.44;4933649;29;20032;-95
2024/04/02 08:41:38;;;;;;;;;;;;;;;;;;;;;
2024/04/02 08:44:31;;;;;;;28.05;3.88;;;;;;;23.91;31.36;98545.75;4921296;29;20099;-95
2024/04/02 08:47:00;;;;;;;30.05;4.43;;;;;;;23.80;31.73;98551.13;4936439;29;20040;-95
2024/04/02 08:49:32;;;;;;;28.92;4.35;;;;;;;23.60;32.35;98535.97;4914240;29;20502;-94
2024/04/02 08:52:52;;;;;;;;;;;;;;;;;;;;;
2024/04/02 09:02:08;;;;;;;;;;;;;;;;;;;;;
2024/04/02 09:04:42;;;;;;;24.80;4.65;;;;;;;23.06;35.17;98567.50;4876966;29;20606;-95
2024/04/02 09:10:10;;;;;;;27.27;4.47;;;;;;;23.25;34.86;98570.09;4943862;29;20038;-94
2024/04/02 09:12:36;;;;;;;22.33;5.38;;;;;;;23.56;34.92;98582.63;4900992;29;20032;-93
2024/04/02 09:15:04;;;;;;;18.98;4.28;;;;;;;23.66;35.08;98592.19;4890099;29;20031;-94
2024/04/02 09:21:03;;;;;;;22.27;3.10;;;;;;;23.69;34.85;98593.38;4924061;29;20577;-93
2024/04/02 09:23:38;;;;;;;23.20;3.28;;;;;;;23.70;34.89;98590.25;4905869;29;20024;-91
2024/04/02 09:26:23;;;;;;;23.70;3.70;;;;;;;23.71;35.17;98585.56;4907467;29;20056;-94
2024/04/02 09:28:54;;;;;;;14.75;3.90;;;;;;;24.02;34.64;98589.84;4923737;29;20032;-90
2024/04/02 09:31:31;;;;;;;22.42;3.28;;;;;;;24.27;33.92;98614.81;4925275;29;20019;-93
2024/04/02 09:34:07;;;;;;;19.42;3.90;;;;;;;24.47;33.65;98622.88;4928601;29;20028;-91
2024/04/02 09:36:49;;;;;;;19.55;3.38;;;;;;;24.14;33.89;98633.56;4918276;29;20063;-93
2024/04/02 09:39:21;;;;;;;16.70;3.03;;;;;;;24.03;34.84;98640.13;4918523;29;20031;-93
2024/04/02 09:41:51;;;;;;;12.88;2.92;;;;;;;23.87;35.00;98624.66;4919043;29;20129;-92
2024/04/02 09:44:48;;;;;;;18.83;3.08;;;;;;;24.05;34.70;98627.59;4898448;29;20031;-94
2024/04/02 09:47:49;;;;;;;60.13;34.70;;;;;;;23.99;35.34;98634.59;4908709;29;20047;-96
2024/04/02 09:50:16;;;;;;;10.48;2.42;;;;;;;23.90;35.21;98618.38;4870801;29;20043;-94
2024/04/02 09:52:49;;;;;;;15.50;2.53;;;;;;;24.03;35.11;98620.88;4899406;29;20106;-96
2024/04/02 09:55:22;;;;;;;15.70;3.08;;;;;;;24.28;34.68;98632.94;4919960;29;20036;-95
2024/04/02 09:58:03;;;;;;;16.90;2.90;;;;;;;24.23;34.72;98640.72;4909226;29;20083;-95
2024/04/02 10:00:32;;;;;;;14.23;2.53;;;;;;;23.97;34.82;98637.72;4894731;29;20107;-95
2024/04/02 10:03:03;;;;;;;14.05;2.28;;;;;;;23.92;34.53;98629.00;4899375;29;20039;-96
2024/04/02 10:09:09;;;;;;;;;;;;;;;;;;;;;
2024/04/02 10:14:35;;;;;;;18.80;3.30;;;;;;;24.02;34.85;98639.34;4935265;29;20042;-94
2024/04/02 10:17:21;;;;;;;26.40;3.47;;;;;;;24.20;35.05;98634.03;4905552;29;20042;-91
2024/04/02 10:19:47;;;;;;;14.40;2.75;;;;;;;24.35;34.43;98634.94;4910078;29;20043;-92
2024/04/02 10:22:49;;;;;;;;;;;;;;;;;;;;;
2024/04/02 10:25:43;;;;;;;18.45;2.60;;;;;;;24.26;34.41;98660.03;4929158;29;20126;-92
2024/04/02 10:28:22;;;;;;;23.30;3.17;;;;;;;24.06;34.43;98650.38;4885566;29;20055;-93
2024/04/02 10:30:48;;;;;;;18.55;3.50;;;;;;;23.99;35.08;98629.88;4886986;29;20024;-91
2024/04/02 10:33:20;;;;;;;14.25;2.75;;;;;;;24.20;34.82;98648.56;4916561;29;20187;-95
2024/04/02 10:36:05;;;;;;;14.90;2.72;;;;;;;24.31;34.07;98645.91;4895823;29;20032;-96
2024/04/02 10:38:34;;;;;;;12.65;2.42;;;;;;;24.48;33.86;98649.22;4892048;29;20033;-93
2024/04/02 10:41:08;;;;;;;16.77;3.40;;;;;;;24.45;33.45;98653.53;4902330;29;20059;-95
2024/04/02 10:43:36;;;;;;;17.73;2.90;;;;;;;24.51;33.48;98659.47;4902569;29;20396;-94
2024/04/02 11:01:09;;;;;;;10.98;1.85;;;;;;;24.22;33.04;98675.72;5108089;23;20103;-92
2024/04/02 11:03:52;;;;;;;13.75;2.40;;;;;;;24.11;32.92;98670.06;4939672;28;20102;-93
2024/04/02 11:06:18;;;;;;;8.23;1.92;;;;;;;24.18;32.99;98685.88;4958653;28;20019;-94
2024/04/02 11:08:54;;;;;;;15.10;2.13;;;;;;;24.28;32.95;98668.69;4950565;28;20034;-92
2024/04/02 11:11:23;;;;;;;15.13;1.67;;;;;;;23.98;33.23;98686.03;4956985;28;20400;-90
2024/04/02 11:14:12;;;;;;;8.18;2.28;;;;;;;23.85;33.42;98681.19;4962511;28;20030;-93
2024/04/02 11:16:50;;;;;;;8.52;1.52;;;;;;;23.54;32.69;98680.38;4952312;28;20035;-90
2024/04/02 11:19:24;;;;;;;9.27;1.75;;;;;;;22.99;34.03;98695.25;4956395;28;20030;-90
2024/04/02 11:33:19;;;;;;;;;;;;;;;;;;;;;
2024/04/02 11:35:34;;;;;;;9.10;1.20;;;;;;;23.20;32.40;98694.81;4906366;29;20047;-92
2024/04/02 11:38:06;;;;;;;11.57;1.25;;;;;;;23.21;30.36;98690.09;4907745;29;20032;-94
2024/04/02 11:40:49;;;;;;;8.18;1.45;;;;;;;23.00;31.01;98677.59;4925450;29;20030;-92
2024/04/02 11:43:57;;;;;;;6.15;1.20;;;;;;;23.33;31.53;98705.59;4923876;29;20032;-92
2024/04/02 11:49:32;;;;;;;9.48;0.90;;;;;;;23.08;32.28;98686.00;4871284;29;20041;-92
2024/04/02 11:52:39;;;;;;;9.13;1.13;;;;;;;23.22;32.07;98658.72;4892208;29;20064;-96
2024/04/02 11:55:13;;;;;;;7.75;1.00;;;;;;;23.01;31.46;98670.19;4917998;29;20395;-92
2024/04/02 12:01:38;;;;;;;;;;;;;;;;;;;;;
2024/04/02 12:07:14;;;;;;;6.75;1.08;;;;;;;22.97;30.96;98669.31;5631728;23;20055;-95
2024/04/02 12:09:54;;;;;;;7.07;1.20;;;;;;;23.14;30.79;98682.56;4931897;29;20044;-93
2024/04/02 12:13:00;;;;;;;6.55;0.82;;;;;;;23.12;30.42;98670.38;4912523;29;20028;-93
2024/04/02 12:15:31;;;;;;;5.53;0.95;;;;;;;23.16;30.32;98676.72;4928855;29;20031;-95
2024/04/02 12:18:56;;;;;;;6.47;1.10;;;;;;;23.20;31.65;98677.53;4913921;29;20123;-92
2024/04/02 12:21:24;;;;;;;4.90;2.05;;;;;;;23.09;32.37;98676.59;4913856;29;20103;-93
2024/04/02 12:28:03;;;;;;;9.88;2.55;;;;;;;22.68;33.32;98693.56;4928679;29;20048;-93
2024/04/02 12:31:11;;;;;;;;;;;;;;;;;;;;;
2024/04/02 12:34:20;;;;;;;8.48;1.35;;;;;;;22.74;32.29;98667.41;4930088;29;20032;-95
2024/04/02 12:36:46;;;;;;;7.20;0.90;;;;;;;22.63;32.42;98669.16;4929533;29;20067;-94
2024/04/02 12:39:46;;;;;;;5.75;1.23;;;;;;;22.66;31.63;98662.97;4926386;29;20034;-96
2024/04/02 12:42:36;;;;;;;5.95;0.98;;;;;;;22.84;31.25;98681.66;4926582;29;20048;-94
2024/04/02 12:45:03;;;;;;;9.52;1.20;;;;;;;22.71;31.47;98665.38;4926160;29;20028;-95
2024/04/02 12:47:45;;;;;;;5.03;1.05;;;;;;;22.59;30.92;98655.38;4894318;29;20072;-95
2024/04/02 12:50:26;;;;;;;8.70;1.10;;;;;;;22.58;30.98;98656.53;4872804;29;20387;-94
2024/04/02 12:53:12;;;;;;;4.28;0.60;;;;;;;22.71;30.30;98670.88;4887581;29;20180;-94
2024/04/02 12:55:40;;;;;;;10.50;1.25;;;;;;;22.97;29.47;98674.78;4883384;29;20040;-94
2024/04/02 12:58:09;;;;;;;7.20;1.00;;;;;;;22.95;28.85;98663.38;4857103;29;20037;-96
2024/04/02 13:00:39;;;;;;;10.30;0.80;;;;;;;23.09;28.45;98671.09;4857124;29;20127;-95
2024/04/02 13:03:10;;;;;;;3.67;0.70;;;;;;;23.20;28.48;98661.84;4871562;29;20072;-94
2024/04/02 13:05:41;;;;;;;6.97;1.27;;;;;;;23.31;29.21;98669.47;4863629;29;20041;-96
2024/04/02 13:11:43;;;;;;;9.60;1.08;;;;;;;23.37;28.04;98709.97;4836738;29;20042;-96
2024/04/02 13:14:19;;;;;;;5.57;0.60;;;;;;;23.14;28.53;98701.00;4832623;29;20042;-94
2024/04/02 13:16:56;;;;;;;9.20;0.95;;;;;;;22.79;28.75;98691.78;4817756;29;20074;-95
2024/04/02 13:19:24;;;;;;;5.88;0.70;;;;;;;22.50;28.83;98670.50;4818227;29;20057;-95
2024/04/02 13:21:50;;;;;;;7.13;0.50;;;;;;;22.41;29.44;98684.44;4829391;29;20037;-93
2024/04/02 13:24:16;;;;;;;6.75;0.70;;;;;;;22.28;28.97;98678.34;4852729;29;20049;-94
2024/04/02 13:27:10;;;;;;;2.80;0.52;;;;;;;22.38;28.95;98661.28;4854060;29;20129;-93
2024/04/02 13:29:47;;;;;;;7.78;1.00;;;;;;;22.55;29.14;98681.97;4866213;29;20037;-94
2024/04/02 13:32:15;;;;;;;7.10;1.10;;;;;;;22.75;28.67;98701.91;4880421;29;20033;-93
2024/04/02 13:34:43;;;;;;;4.32;1.20;;;;;;;22.80;28.85;98689.81;4876152;29;20041;-93
2024/04/02 13:37:26;;;;;;;7.78;0.93;;;;;;;22.69;27.96;98680.63;4852741;29;20600;-94
2024/04/02 13:39:52;;;;;;;6.57;0.60;;;;;;;22.76;27.37;98669.75;4838049;29;20066;-91
2024/04/02 13:42:27;;;;;;;3.67;0.90;;;;;;;22.75;27.13;98684.66;4851973;29;20039;-92
2024/04/02 13:45:03;;;;;;;3.83;0.80;;;;;;;22.90;27.62;98683.72;4865561;29;20636;-92
2024/04/02 13:47:37;;;;;;;2.63;0.52;;;;;;;22.95;27.36;98688.91;4854629;29;20528;-94
2024/04/02 13:50:04;;;;;;;4.10;0.68;;;;;;;22.98;27.15;98687.38;4867119;29;20108;-91
2024/04/02 13:52:32;;;;;;;5.15;0.70;;;;;;;22.93;27.17;98684.94;4867358;29;20056;-93
2024/04/02 13:55:08;;;;;;;;;;;;;;;;;;;;;
2024/04/02 14:04:18;;;;;;;7.22;0.68;;;;;;;23.24;25.73;98677.59;4876051;29;20039;-94
2024/04/02 14:07:01;;;;;;;6.35;0.80;;;;;;;22.97;25.97;98675.59;4863156;29;20392;-93
2024/04/02 14:09:29;;;;;;;5.00;1.05;;;;;;;22.96;25.93;98674.00;4898432;29;20531;-93
2024/04/02 14:12:23;;;;;;;6.97;0.85;;;;;;;22.90;25.70;98672.75;4872422;29;20120;-96
2024/04/02 14:14:48;;;;;;;5.25;0.93;;;;;;;22.78;25.91;98664.69;4907825;29;20034;-93
2024/04/02 14:17:27;;;;;;;;;;;;;;;;;;;;;
2024/04/02 14:23:33;;;;;;;4.82;0.43;;;;;;;22.49;26.95;98694.38;4882325;29;20574;-91
2024/04/02 14:26:08;;;;;;;6.43;0.80;;;;;;;22.59;26.89;98668.31;4891147;29;20074;-96
2024/04/02 14:31:38;;;;;;;4.00;0.63;;;;;;;22.91;25.54;98679.00;4903399;29;20048;-93
2024/04/02 14:34:05;;;;;;;3.83;0.85;;;;;;;22.81;26.06;98674.97;4902853;29;20060;-94
2024/04/02 14:36:31;;;;;;;7.00;1.13;;;;;;;22.92;26.22;98666.88;4894408;29;20040;-93
2024/04/02 14:39:01;;;;;;;6.68;0.50;;;;;;;23.17;25.34;98695.53;4889728;29;20036;-95